createdAt,value
2018-12-31T00:00:01.203Z,864.79
2018-12-31T00:01:01.171Z,864.78
2018-12-31T00:02:01.208Z,864.84
2018-12-31T00:03:01.246Z,864.79
2018-12-31T00:04:01.157Z,864.78
2018-12-31T00:05:01.125Z,864.86
2018-12-31T00:06:01.119Z,864.83
2018-12-31T00:07:01.129Z,864.85
2018-12-31T00:08:01.101Z,864.79
2018-12-31T00:09:01.141Z,864.85
2018-12-31T00:10:01.133Z,864.88
2018-12-31T00:11:01.085Z,864.81
2018-12-31T00:12:01.048Z,864.79
2018-12-31T00:13:01.039Z,864.84
2018-12-31T00:14:02.286Z,864.82
2018-12-31T00:15:01.024Z,864.86
2018-12-31T00:16:01.009Z,864.95
2018-12-31T00:17:00.994Z,864.92
2018-12-31T00:18:01.017Z,864.94
2018-12-31T00:19:01.004Z,864.94
2018-12-31T00:20:01.020Z,864.93
2018-12-31T00:21:00.984Z,864.91
2018-12-31T00:22:00.968Z,864.85
2018-12-31T00:23:00.951Z,864.87
2018-12-31T00:24:00.987Z,864.95
2018-12-31T00:25:00.936Z,864.98
2018-12-31T00:26:00.980Z,864.95
2018-12-31T00:27:00.937Z,864.95
2018-12-31T00:28:00.889Z,865.00
2018-12-31T00:29:00.868Z,865.01
2018-12-31T00:30:00.882Z,865.00
2018-12-31T00:31:00.890Z,865.01
2018-12-31T00:32:00.896Z,865.01
2018-12-31T00:33:00.847Z,865.05
2018-12-31T00:34:00.894Z,864.98
2018-12-31T00:35:00.833Z,865.00
2018-12-31T00:36:00.802Z,865.00
2018-12-31T00:37:00.855Z,865.01
2018-12-31T00:38:00.780Z,865.01
2018-12-31T00:39:00.760Z,864.99
2018-12-31T00:40:02.479Z,865.01
2018-12-31T00:41:00.748Z,865.00
2018-12-31T00:42:00.792Z,865.03
2018-12-31T00:43:00.724Z,865.04
2018-12-31T00:44:00.710Z,865.04
2018-12-31T00:45:00.835Z,865.05
2018-12-31T00:46:00.734Z,865.09
2018-12-31T00:47:00.685Z,865.09
2018-12-31T00:48:00.660Z,865.09
2018-12-31T00:49:00.690Z,865.04
2018-12-31T00:50:00.642Z,865.03
2018-12-31T00:51:00.633Z,864.96
2018-12-31T00:52:00.678Z,864.99
2018-12-31T00:53:00.633Z,865.02
2018-12-31T00:54:00.605Z,865.00
2018-12-31T00:55:00.586Z,865.04
2018-12-31T00:56:00.597Z,865.03
2018-12-31T00:57:00.571Z,865.03
2018-12-31T00:58:00.617Z,864.96
2018-12-31T00:59:00.570Z,865.00
2018-12-31T01:00:00.569Z,864.98
2018-12-31T01:01:00.533Z,864.98
2018-12-31T01:02:00.531Z,864.98
2018-12-31T01:03:00.509Z,864.97
2018-12-31T01:04:00.540Z,864.91
2018-12-31T01:05:01.305Z,864.95
2018-12-31T01:06:00.477Z,864.92
2018-12-31T01:07:00.710Z,864.92
2018-12-31T01:08:00.585Z,864.93
2018-12-31T01:09:00.441Z,864.95
2018-12-31T01:10:00.453Z,864.93
2018-12-31T01:11:00.439Z,864.93
2018-12-31T01:12:00.412Z,864.91
2018-12-31T01:13:00.454Z,864.91
2018-12-31T01:14:00.400Z,864.95
2018-12-31T01:15:00.360Z,864.90
2018-12-31T01:16:00.356Z,864.87
2018-12-31T01:17:00.365Z,864.88
2018-12-31T01:18:00.374Z,864.86
2018-12-31T01:19:00.337Z,864.88
2018-12-31T01:20:00.317Z,864.91
2018-12-31T01:21:00.301Z,864.84
2018-12-31T01:22:00.294Z,864.85
2018-12-31T01:23:00.468Z,864.83
2018-12-31T01:24:00.291Z,864.88
2018-12-31T01:25:00.448Z,864.84
2018-12-31T01:26:01.244Z,864.85
2018-12-31T01:27:00.253Z,864.85
2018-12-31T01:28:00.231Z,864.89
2018-12-31T01:29:00.260Z,864.83
2018-12-31T01:30:00.226Z,864.88
2018-12-31T01:31:00.187Z,864.87
2018-12-31T01:32:00.189Z,864.90
2018-12-31T01:33:00.233Z,864.87
2018-12-31T01:34:00.178Z,864.88
2018-12-31T01:35:00.252Z,864.88
2018-12-31T01:36:00.137Z,864.91
2018-12-31T01:37:00.136Z,864.88
2018-12-31T01:38:00.139Z,864.95
2018-12-31T01:39:00.153Z,864.94
2018-12-31T01:40:00.105Z,864.93
2018-12-31T01:41:00.119Z,864.94
2018-12-31T01:42:00.092Z,864.93
2018-12-31T01:43:00.062Z,864.96
2018-12-31T01:44:00.053Z,864.92
2018-12-31T01:45:00.088Z,864.92
2018-12-31T01:46:00.047Z,864.92
2018-12-31T01:47:00.029Z,864.93
2018-12-31T01:48:00.004Z,864.93
2018-12-31T01:49:00.005Z,864.86
2018-12-31T01:49:59.989Z,864.89
2018-12-31T01:51:00.048Z,864.89
2018-12-31T01:51:59.965Z,864.88
2018-12-31T01:52:59.992Z,864.83
2018-12-31T01:53:59.954Z,864.84
2018-12-31T01:54:59.927Z,864.81
2018-12-31T01:55:59.921Z,864.84
2018-12-31T01:56:59.947Z,864.83
2018-12-31T01:57:59.903Z,864.80
2018-12-31T01:58:59.885Z,864.80
2018-12-31T01:59:59.915Z,864.83
2018-12-31T02:00:59.863Z,864.83
2018-12-31T02:01:59.860Z,864.85
2018-12-31T02:02:59.894Z,864.80
2018-12-31T02:03:59.826Z,864.84
2018-12-31T02:04:59.840Z,864.85
2018-12-31T02:05:59.808Z,864.91
2018-12-31T02:06:59.809Z,864.87
2018-12-31T02:07:59.793Z,864.84
2018-12-31T02:08:59.831Z,864.85
2018-12-31T02:09:59.798Z,864.89
2018-12-31T02:10:59.775Z,864.84
2018-12-31T02:11:59.797Z,864.87
2018-12-31T02:12:59.760Z,864.84
2018-12-31T02:13:59.737Z,864.85
2018-12-31T02:14:59.766Z,864.83
2018-12-31T02:15:59.912Z,864.86
2018-12-31T02:16:59.689Z,864.93
2018-12-31T02:17:59.688Z,864.86
2018-12-31T02:18:59.711Z,864.83
2018-12-31T02:19:59.670Z,864.83
2018-12-31T02:20:59.718Z,864.84
2018-12-31T02:21:59.647Z,864.85
2018-12-31T02:22:59.640Z,864.86
2018-12-31T02:23:59.617Z,864.88
2018-12-31T02:24:59.617Z,864.85
2018-12-31T02:25:59.771Z,864.83
2018-12-31T02:26:59.618Z,864.82
2018-12-31T02:27:59.579Z,864.82
2018-12-31T02:28:59.562Z,864.85
2018-12-31T02:29:59.561Z,864.85
2018-12-31T02:30:59.548Z,864.86
2018-12-31T02:31:59.596Z,864.83
2018-12-31T02:32:59.522Z,864.86
2018-12-31T02:33:59.522Z,864.84
2018-12-31T02:34:59.613Z,864.82
2018-12-31T02:35:59.485Z,864.84
2018-12-31T02:36:59.510Z,864.83
2018-12-31T02:37:59.500Z,864.86
2018-12-31T02:38:59.451Z,864.89
2018-12-31T02:39:59.455Z,864.82
2018-12-31T02:40:59.439Z,864.83
2018-12-31T02:41:59.466Z,864.84
2018-12-31T02:42:59.419Z,864.87
2018-12-31T02:43:59.446Z,864.83
2018-12-31T02:44:59.398Z,864.86
2018-12-31T02:45:59.374Z,864.83
2018-12-31T02:46:59.400Z,864.79
2018-12-31T02:47:59.383Z,864.79
2018-12-31T02:48:59.372Z,864.79
2018-12-31T02:49:59.385Z,864.76
2018-12-31T02:50:59.322Z,864.73
2018-12-31T02:51:59.311Z,864.78
2018-12-31T02:52:59.300Z,864.76
2018-12-31T02:53:59.325Z,864.77
2018-12-31T02:54:59.319Z,864.77
2018-12-31T02:55:59.313Z,864.72
2018-12-31T02:57:00.300Z,864.71
2018-12-31T02:57:59.246Z,864.72
2018-12-31T02:58:59.252Z,864.77
2018-12-31T02:59:59.239Z,864.71
2018-12-31T03:00:59.223Z,864.72
2018-12-31T03:01:59.239Z,864.73
2018-12-31T03:02:59.192Z,864.74
2018-12-31T03:03:59.182Z,864.73
2018-12-31T03:04:59.201Z,864.70
2018-12-31T03:05:59.152Z,864.66
2018-12-31T03:06:59.170Z,864.69
2018-12-31T03:07:59.198Z,864.66
2018-12-31T03:08:59.156Z,864.65
2018-12-31T03:09:59.113Z,864.68
2018-12-31T03:10:59.111Z,864.60
2018-12-31T03:11:59.123Z,864.70
2018-12-31T03:12:59.085Z,864.62
2018-12-31T03:13:59.154Z,864.61
2018-12-31T03:14:59.063Z,864.65
2018-12-31T03:15:59.071Z,864.60
2018-12-31T03:16:59.047Z,864.62
2018-12-31T03:17:59.027Z,864.60
2018-12-31T03:18:59.014Z,864.57
2018-12-31T03:19:59.045Z,864.61
2018-12-31T03:20:59.017Z,864.59
2018-12-31T03:21:58.995Z,864.56
2018-12-31T03:22:58.983Z,864.53
2018-12-31T03:23:59.002Z,864.54
2018-12-31T03:24:58.967Z,864.53
2018-12-31T03:25:58.937Z,864.55
2018-12-31T03:26:58.929Z,864.53
2018-12-31T03:27:58.924Z,864.55
2018-12-31T03:28:58.908Z,864.52
2018-12-31T03:29:58.957Z,864.55
2018-12-31T03:30:58.888Z,864.55
2018-12-31T03:31:58.882Z,864.52
2018-12-31T03:32:58.874Z,864.53
2018-12-31T03:33:58.872Z,864.50
2018-12-31T03:34:58.892Z,864.51
2018-12-31T03:35:58.828Z,864.52
2018-12-31T03:36:58.830Z,864.54
2018-12-31T03:37:58.811Z,864.55
2018-12-31T03:38:58.793Z,864.53
2018-12-31T03:39:58.813Z,864.52
2018-12-31T03:40:58.824Z,864.54
2018-12-31T03:41:58.795Z,864.53
2018-12-31T03:42:58.772Z,864.52
2018-12-31T03:43:58.750Z,864.55
2018-12-31T03:44:58.781Z,864.57
2018-12-31T03:45:58.759Z,864.58
2018-12-31T03:46:58.713Z,864.57
2018-12-31T03:47:58.697Z,864.59
2018-12-31T03:48:58.688Z,864.59
2018-12-31T03:49:58.681Z,864.56
2018-12-31T03:50:58.737Z,864.56
2018-12-31T03:51:58.662Z,864.58
2018-12-31T03:52:58.654Z,864.60
2018-12-31T03:53:58.639Z,864.59
2018-12-31T03:54:58.621Z,864.55
2018-12-31T03:55:58.627Z,864.62
2018-12-31T03:56:58.664Z,864.64
2018-12-31T03:57:58.609Z,864.61
2018-12-31T03:58:58.576Z,864.61
2018-12-31T03:59:58.565Z,864.67
2018-12-31T04:00:58.599Z,864.67
2018-12-31T04:01:58.540Z,864.67
2018-12-31T04:02:58.528Z,864.69
2018-12-31T04:03:58.544Z,864.66
2018-12-31T04:04:58.522Z,864.70
2018-12-31T04:05:58.504Z,864.67
2018-12-31T04:06:58.646Z,864.71
2018-12-31T04:07:58.480Z,864.67
2018-12-31T04:08:58.507Z,864.66
2018-12-31T04:09:58.479Z,864.66
2018-12-31T04:10:58.449Z,864.64
2018-12-31T04:11:58.435Z,864.64
2018-12-31T04:12:58.468Z,864.68
2018-12-31T04:13:58.414Z,864.66
2018-12-31T04:14:58.403Z,864.70
2018-12-31T04:15:58.393Z,864.68
2018-12-31T04:16:58.409Z,864.68
2018-12-31T04:17:58.372Z,864.68
2018-12-31T04:18:58.407Z,864.64
2018-12-31T04:19:58.366Z,864.68
2018-12-31T04:20:58.341Z,864.64
2018-12-31T04:21:58.327Z,864.66
2018-12-31T04:22:58.335Z,864.65
2018-12-31T04:23:58.303Z,864.66
2018-12-31T04:24:58.368Z,864.68
2018-12-31T04:25:58.284Z,864.67
2018-12-31T04:26:58.276Z,864.64
2018-12-31T04:27:58.262Z,864.67
2018-12-31T04:28:58.305Z,864.61
2018-12-31T04:29:58.268Z,864.64
2018-12-31T04:30:58.241Z,864.61
2018-12-31T04:31:58.221Z,864.56
2018-12-31T04:32:58.207Z,864.57
2018-12-31T04:33:58.213Z,864.53
2018-12-31T04:34:58.252Z,864.52
2018-12-31T04:35:58.209Z,864.54
2018-12-31T04:36:58.169Z,864.55
2018-12-31T04:37:58.169Z,864.57
2018-12-31T04:38:58.149Z,864.59
2018-12-31T04:39:58.137Z,864.59
2018-12-31T04:40:58.183Z,864.58
2018-12-31T04:41:58.133Z,864.57
2018-12-31T04:42:58.111Z,864.61
2018-12-31T04:43:58.108Z,864.57
2018-12-31T04:44:58.083Z,864.53
2018-12-31T04:45:58.073Z,864.52
2018-12-31T04:46:58.103Z,864.51
2018-12-31T04:47:58.050Z,864.53
2018-12-31T04:48:58.065Z,864.51
2018-12-31T04:49:58.031Z,864.53
2018-12-31T04:50:58.019Z,864.49
2018-12-31T04:51:58.008Z,864.49
2018-12-31T04:52:58.055Z,864.46
2018-12-31T04:53:57.991Z,864.46
2018-12-31T04:54:57.975Z,864.51
2018-12-31T04:55:57.986Z,864.53
2018-12-31T04:56:57.957Z,864.50
2018-12-31T04:57:57.949Z,864.50
2018-12-31T04:58:57.973Z,864.57
2018-12-31T04:59:57.920Z,864.56
2018-12-31T05:00:57.911Z,864.59
2018-12-31T05:01:57.921Z,864.57
2018-12-31T05:02:57.885Z,864.54
2018-12-31T05:03:57.887Z,864.54
2018-12-31T05:04:57.907Z,864.57
2018-12-31T05:05:57.910Z,864.55
2018-12-31T05:07:31.800Z,864.58
2018-12-31T05:07:58.837Z,864.59
2018-12-31T05:08:57.826Z,864.60
2018-12-31T05:09:57.842Z,864.60
2018-12-31T05:10:57.808Z,864.65
2018-12-31T05:11:57.825Z,864.63
2018-12-31T05:12:57.781Z,864.62
2018-12-31T05:13:57.783Z,864.58
2018-12-31T05:14:57.769Z,864.56
2018-12-31T05:15:57.794Z,864.53
2018-12-31T05:16:57.742Z,864.61
2018-12-31T05:17:57.729Z,864.62
2018-12-31T05:18:57.711Z,864.65
2018-12-31T05:19:57.722Z,864.65
2018-12-31T05:20:57.739Z,864.65
2018-12-31T05:21:57.682Z,864.62
2018-12-31T05:22:57.676Z,864.64
2018-12-31T05:23:57.673Z,864.67
2018-12-31T05:24:57.649Z,864.63
2018-12-31T05:25:57.669Z,864.69
2018-12-31T05:26:57.649Z,864.65
2018-12-31T05:27:57.665Z,864.62
2018-12-31T05:28:57.602Z,864.64
2018-12-31T05:29:57.715Z,864.63
2018-12-31T05:30:57.605Z,864.64
2018-12-31T05:31:57.567Z,864.61
2018-12-31T05:32:57.628Z,864.60
2018-12-31T05:33:57.574Z,864.59
2018-12-31T05:34:57.536Z,864.58
2018-12-31T05:35:57.547Z,864.54
2018-12-31T05:36:57.523Z,864.60
2018-12-31T05:37:57.508Z,864.56
2018-12-31T05:38:57.530Z,864.59
2018-12-31T05:39:57.491Z,864.64
2018-12-31T05:40:57.495Z,864.62
2018-12-31T05:41:57.462Z,864.57
2018-12-31T05:42:57.497Z,864.54
2018-12-31T05:43:57.436Z,864.58
2018-12-31T05:44:57.424Z,864.60
2018-12-31T05:45:57.420Z,864.62
2018-12-31T05:46:57.422Z,864.65
2018-12-31T05:47:57.396Z,864.63
2018-12-31T05:48:57.420Z,864.63
2018-12-31T05:49:57.367Z,864.60
2018-12-31T05:50:57.355Z,864.62
2018-12-31T05:51:57.353Z,864.64
2018-12-31T05:52:57.359Z,864.63
2018-12-31T05:53:57.336Z,864.61
2018-12-31T05:54:57.356Z,864.61
2018-12-31T05:55:57.311Z,864.60
2018-12-31T05:56:57.297Z,864.64
2018-12-31T05:57:57.281Z,864.61
2018-12-31T05:58:57.275Z,864.58
2018-12-31T05:59:57.290Z,864.59
2018-12-31T06:00:57.307Z,864.61
2018-12-31T06:01:57.242Z,864.62
2018-12-31T06:02:57.233Z,864.63
2018-12-31T06:03:57.219Z,864.62
2018-12-31T06:04:57.205Z,864.57
2018-12-31T06:05:57.294Z,864.54
2018-12-31T06:06:57.192Z,864.60
2018-12-31T06:07:57.275Z,864.59
2018-12-31T06:08:57.162Z,864.64
2018-12-31T06:09:57.162Z,864.59
2018-12-31T06:10:57.146Z,864.62
2018-12-31T06:11:57.172Z,864.59
2018-12-31T06:12:57.152Z,864.60
2018-12-31T06:13:57.111Z,864.61
2018-12-31T06:14:57.114Z,864.63
2018-12-31T06:15:57.097Z,864.72
2018-12-31T06:16:57.094Z,864.71
2018-12-31T06:17:57.109Z,864.61
2018-12-31T06:18:57.058Z,864.63
2018-12-31T06:19:57.044Z,864.60
2018-12-31T06:20:57.048Z,864.57
2018-12-31T06:21:57.027Z,864.62
2018-12-31T06:22:57.022Z,864.66
2018-12-31T06:23:57.042Z,864.61
2018-12-31T06:24:56.992Z,864.60
2018-12-31T06:25:56.982Z,864.66
2018-12-31T06:26:56.991Z,864.64
2018-12-31T06:27:56.960Z,864.70
2018-12-31T06:28:56.956Z,864.68
2018-12-31T06:29:56.975Z,864.69
2018-12-31T06:30:56.928Z,864.65
2018-12-31T06:31:56.915Z,864.68
2018-12-31T06:32:56.909Z,864.70
2018-12-31T06:33:56.896Z,864.75
2018-12-31T06:34:56.943Z,864.73
2018-12-31T06:35:56.893Z,864.75
2018-12-31T06:36:56.909Z,864.73
2018-12-31T06:37:56.849Z,864.69
2018-12-31T06:38:56.842Z,864.77
2018-12-31T06:39:56.835Z,864.75
2018-12-31T06:40:56.833Z,864.73
2018-12-31T06:41:56.863Z,864.71
2018-12-31T06:42:56.794Z,864.67
2018-12-31T06:43:56.787Z,864.74
2018-12-31T06:44:56.776Z,864.73
2018-12-31T06:45:56.768Z,864.75
2018-12-31T06:46:56.767Z,864.77
2018-12-31T06:47:56.802Z,864.74
2018-12-31T06:48:56.729Z,864.75
2018-12-31T06:49:56.725Z,864.82
2018-12-31T06:50:56.713Z,864.82
2018-12-31T06:51:56.695Z,864.81
2018-12-31T06:52:57.663Z,864.84
2018-12-31T06:53:56.740Z,864.86
2018-12-31T06:54:56.654Z,864.84
2018-12-31T06:55:56.648Z,864.87
2018-12-31T06:56:56.640Z,864.89
2018-12-31T06:57:56.638Z,864.88
2018-12-31T06:58:56.614Z,864.85
2018-12-31T06:59:56.651Z,864.92
2018-12-31T07:00:56.660Z,864.87
2018-12-31T07:01:56.588Z,864.96
2018-12-31T07:02:56.572Z,864.88
2018-12-31T07:03:56.570Z,864.88
2018-12-31T07:04:56.584Z,864.86
2018-12-31T07:05:56.591Z,864.92
2018-12-31T07:06:56.530Z,864.96
2018-12-31T07:07:56.543Z,864.93
2018-12-31T07:08:56.508Z,864.92
2018-12-31T07:09:56.500Z,864.93
2018-12-31T07:10:56.504Z,864.94
2018-12-31T07:11:56.531Z,864.91
2018-12-31T07:12:56.515Z,864.93
2018-12-31T07:13:56.464Z,864.93
2018-12-31T07:14:56.443Z,864.96
2018-12-31T07:15:56.509Z,864.96
2018-12-31T07:16:56.426Z,864.98
2018-12-31T07:17:56.483Z,864.99
2018-12-31T07:18:56.411Z,864.99
2018-12-31T07:19:56.391Z,864.97
2018-12-31T07:20:56.379Z,864.96
2018-12-31T07:21:56.407Z,865.02
2018-12-31T07:22:56.356Z,865.03
2018-12-31T07:23:56.362Z,865.01
2018-12-31T07:24:56.328Z,864.97
2018-12-31T07:25:56.319Z,864.97
2018-12-31T07:26:56.318Z,864.99
2018-12-31T07:27:56.410Z,864.98
2018-12-31T07:28:56.351Z,864.97
2018-12-31T07:29:56.329Z,864.95
2018-12-31T07:30:56.263Z,864.92
2018-12-31T07:31:56.258Z,864.94
2018-12-31T07:32:56.266Z,864.99
2018-12-31T07:33:56.232Z,864.99
2018-12-31T07:34:56.260Z,864.99
2018-12-31T07:35:56.215Z,864.97
2018-12-31T07:36:56.220Z,864.98
2018-12-31T07:37:56.220Z,864.93
2018-12-31T07:38:56.216Z,864.94
2018-12-31T07:39:56.220Z,864.98
2018-12-31T07:40:56.158Z,864.99
2018-12-31T07:41:56.150Z,865.01
2018-12-31T07:42:56.154Z,864.99
2018-12-31T07:43:56.144Z,864.97
2018-12-31T07:44:56.122Z,864.97
2018-12-31T07:45:56.172Z,864.99
2018-12-31T07:46:56.099Z,865.03
2018-12-31T07:47:56.082Z,865.02
2018-12-31T07:48:56.086Z,864.98
2018-12-31T07:49:56.084Z,865.00
2018-12-31T07:50:56.046Z,865.01
2018-12-31T07:51:56.099Z,864.99
2018-12-31T07:52:56.030Z,864.98
2018-12-31T07:53:56.050Z,865.00
2018-12-31T07:54:56.009Z,864.96
2018-12-31T07:55:55.997Z,865.01
2018-12-31T07:56:56.035Z,865.04
2018-12-31T07:57:55.974Z,865.01
2018-12-31T07:58:55.976Z,865.03
2018-12-31T07:59:55.962Z,865.03
2018-12-31T08:00:55.962Z,865.00
2018-12-31T08:01:55.985Z,865.05
2018-12-31T08:02:55.968Z,865.02
2018-12-31T08:03:55.924Z,865.03
2018-12-31T08:04:55.906Z,865.00
2018-12-31T08:05:55.943Z,864.98
2018-12-31T08:06:55.956Z,865.01
2018-12-31T08:07:55.889Z,865.00
2018-12-31T08:08:55.904Z,864.96
2018-12-31T08:09:55.839Z,864.99
2018-12-31T08:10:55.845Z,865.00
2018-12-31T08:11:55.832Z,864.96
2018-12-31T08:12:55.812Z,865.01
2018-12-31T08:13:55.831Z,864.98
2018-12-31T08:14:55.858Z,864.99
2018-12-31T08:15:55.801Z,864.96
2018-12-31T08:16:55.781Z,865.01
2018-12-31T08:17:55.788Z,865.00
2018-12-31T08:18:55.776Z,865.06
2018-12-31T08:19:55.777Z,865.04
2018-12-31T08:20:55.766Z,865.02
2018-12-31T08:21:55.714Z,865.03
2018-12-31T08:22:55.758Z,865.02
2018-12-31T08:23:55.711Z,865.08
2018-12-31T08:24:55.701Z,865.06
2018-12-31T08:25:55.698Z,865.07
2018-12-31T08:26:55.672Z,865.02
2018-12-31T08:27:55.666Z,865.01
2018-12-31T08:28:55.705Z,865.04
2018-12-31T08:29:55.684Z,865.06
2018-12-31T08:30:55.698Z,865.08
2018-12-31T08:31:55.629Z,865.06
2018-12-31T08:32:55.697Z,865.06
2018-12-31T08:33:55.595Z,865.09
2018-12-31T08:34:55.599Z,865.12
2018-12-31T08:35:55.609Z,865.09
2018-12-31T08:36:55.643Z,865.11
2018-12-31T08:37:55.551Z,865.09
2018-12-31T08:38:55.574Z,865.12
2018-12-31T08:39:55.581Z,865.12
2018-12-31T08:40:55.523Z,865.12
2018-12-31T08:41:55.518Z,865.09
2018-12-31T08:42:55.532Z,865.12
2018-12-31T08:43:55.506Z,865.11
2018-12-31T08:44:55.477Z,865.14
2018-12-31T08:45:55.498Z,865.14
2018-12-31T08:46:55.447Z,865.15
2018-12-31T08:47:55.464Z,865.12
2018-12-31T08:48:55.435Z,865.12
2018-12-31T08:49:55.441Z,865.09
2018-12-31T08:50:55.450Z,865.13
2018-12-31T08:51:55.389Z,865.19
2018-12-31T08:52:55.558Z,865.19
2018-12-31T08:53:55.386Z,865.18
2018-12-31T08:54:55.369Z,865.17
2018-12-31T08:55:55.377Z,865.16
2018-12-31T08:56:55.584Z,865.12
2018-12-31T08:57:55.348Z,865.08
2018-12-31T08:58:55.319Z,865.10
2018-12-31T08:59:55.315Z,865.10
2018-12-31T09:00:55.323Z,865.17
2018-12-31T09:01:55.321Z,865.10
2018-12-31T09:02:55.271Z,865.14
2018-12-31T09:03:55.273Z,865.13
2018-12-31T09:04:55.248Z,865.16
2018-12-31T09:05:55.263Z,865.23
2018-12-31T09:06:55.251Z,865.18
2018-12-31T09:07:55.264Z,865.18
2018-12-31T09:08:55.202Z,865.19
2018-12-31T09:09:55.226Z,865.16
2018-12-31T09:10:55.214Z,865.17
2018-12-31T09:11:55.187Z,865.17
2018-12-31T09:12:55.205Z,865.26
2018-12-31T09:13:55.216Z,865.26
2018-12-31T09:14:55.166Z,865.22
2018-12-31T09:15:55.132Z,865.20
2018-12-31T09:16:55.136Z,865.22
2018-12-31T09:17:55.424Z,865.26
2018-12-31T09:18:55.146Z,865.29
2018-12-31T09:19:55.164Z,865.29
2018-12-31T09:20:55.111Z,865.28
2018-12-31T09:21:55.067Z,865.27
2018-12-31T09:22:55.056Z,865.29
2018-12-31T09:23:55.053Z,865.30
2018-12-31T09:24:55.085Z,865.32
2018-12-31T09:25:56.428Z,865.27
2018-12-31T09:26:55.053Z,865.31
2018-12-31T09:27:55.002Z,865.30
2018-12-31T09:28:55.012Z,865.28
2018-12-31T09:29:55.015Z,865.30
2018-12-31T09:30:54.987Z,865.33
2018-12-31T09:31:55.098Z,865.39
2018-12-31T09:32:55.078Z,865.38
2018-12-31T09:33:54.990Z,865.34
2018-12-31T09:34:54.955Z,865.34
2018-12-31T09:35:54.988Z,865.31
2018-12-31T09:36:54.945Z,865.37
2018-12-31T09:37:54.918Z,865.38
2018-12-31T09:38:54.899Z,865.38
2018-12-31T09:39:54.904Z,865.31
2018-12-31T09:40:54.873Z,865.31
2018-12-31T09:41:55.071Z,865.37
2018-12-31T09:42:55.055Z,865.35
2018-12-31T09:43:54.887Z,865.35
2018-12-31T09:44:54.847Z,865.32
2018-12-31T09:45:54.838Z,865.33
2018-12-31T09:46:54.820Z,865.33
2018-12-31T09:47:54.849Z,865.34
2018-12-31T09:48:54.813Z,865.37
2018-12-31T09:49:54.771Z,865.36
2018-12-31T09:50:54.760Z,865.40
2018-12-31T09:51:54.762Z,865.42
2018-12-31T09:52:54.740Z,865.37
2018-12-31T09:53:54.779Z,865.39
2018-12-31T09:54:54.768Z,865.38
2018-12-31T09:55:54.710Z,865.44
2018-12-31T09:56:54.742Z,865.47
2018-12-31T09:57:54.690Z,865.52
2018-12-31T09:58:54.717Z,865.54
2018-12-31T09:59:54.670Z,865.50
2018-12-31T10:00:54.716Z,865.42
2018-12-31T10:01:54.686Z,865.37
2018-12-31T10:02:54.624Z,865.43
2018-12-31T10:03:54.618Z,865.51
2018-12-31T10:04:54.630Z,865.50
2018-12-31T10:05:54.616Z,865.48
2018-12-31T10:06:54.634Z,865.49
2018-12-31T10:07:54.572Z,865.47
2018-12-31T10:08:54.561Z,865.43
2018-12-31T10:09:54.598Z,865.41
2018-12-31T10:10:54.554Z,865.43
2018-12-31T10:11:54.568Z,865.45
2018-12-31T10:12:54.571Z,865.43
2018-12-31T10:13:55.165Z,865.46
2018-12-31T10:14:54.627Z,865.43
2018-12-31T10:15:54.497Z,865.41
2018-12-31T10:16:54.501Z,865.42
2018-12-31T10:17:54.520Z,865.47
2018-12-31T10:18:54.459Z,865.47
2018-12-31T10:19:54.459Z,865.49
2018-12-31T10:20:54.491Z,865.45
2018-12-31T10:21:54.506Z,865.45
2018-12-31T10:22:54.419Z,865.39
2018-12-31T10:23:55.111Z,865.39
2018-12-31T10:24:54.397Z,865.41
2018-12-31T10:25:54.401Z,865.42
2018-12-31T10:26:54.369Z,865.34
2018-12-31T10:27:55.369Z,865.40
2018-12-31T10:28:54.596Z,865.40
2018-12-31T10:29:54.353Z,865.38
2018-12-31T10:30:56.435Z,865.34
2018-12-31T10:31:54.338Z,865.41
2018-12-31T10:32:54.333Z,865.36
2018-12-31T10:33:55.147Z,865.34
2018-12-31T10:34:54.332Z,865.29
2018-12-31T10:35:54.314Z,865.31
2018-12-31T10:36:54.275Z,865.31
2018-12-31T10:37:54.269Z,865.29
2018-12-31T10:38:54.287Z,865.29
2018-12-31T10:39:54.241Z,865.30
2018-12-31T10:40:54.278Z,865.27
2018-12-31T10:41:54.227Z,865.27
2018-12-31T10:43:02.905Z,865.32
2018-12-31T10:43:54.289Z,865.31
2018-12-31T10:44:54.216Z,865.26
2018-12-31T10:45:54.213Z,865.23
2018-12-31T10:46:54.230Z,865.23
2018-12-31T10:47:54.162Z,865.23
2018-12-31T10:48:54.203Z,865.27
2018-12-31T10:49:54.132Z,865.27
2018-12-31T10:50:54.125Z,865.25
2018-12-31T10:51:54.126Z,865.25
2018-12-31T10:52:54.192Z,865.28
2018-12-31T10:53:54.103Z,865.30
2018-12-31T10:54:54.070Z,865.22
2018-12-31T10:55:54.109Z,865.22
2018-12-31T10:56:54.075Z,865.21
2018-12-31T10:57:54.067Z,865.19
2018-12-31T10:58:54.082Z,865.17
2018-12-31T10:59:54.033Z,865.12
2018-12-31T11:00:54.105Z,865.07
2018-12-31T11:01:54.048Z,865.05
2018-12-31T11:02:54.033Z,865.05
2018-12-31T11:03:54.001Z,865.06
2018-12-31T11:04:54.033Z,865.02
2018-12-31T11:05:53.982Z,865.03
2018-12-31T11:07:25.419Z,865.03
2018-12-31T11:07:54.954Z,864.99
2018-12-31T11:08:53.968Z,864.96
2018-12-31T11:09:53.947Z,864.98
2018-12-31T11:10:53.936Z,864.99
2018-12-31T11:11:53.918Z,864.98
2018-12-31T11:12:53.909Z,864.98
2018-12-31T11:13:53.879Z,864.94
2018-12-31T11:14:53.867Z,864.97
2018-12-31T11:15:53.898Z,864.88
2018-12-31T11:16:53.892Z,864.87
2018-12-31T11:17:53.834Z,864.80
2018-12-31T11:18:53.835Z,864.86
2018-12-31T11:19:53.854Z,864.82
2018-12-31T11:20:53.798Z,864.86
2018-12-31T11:21:53.777Z,864.82
2018-12-31T11:22:53.792Z,864.84
2018-12-31T11:23:53.793Z,864.73
2018-12-31T11:24:53.754Z,864.73
2018-12-31T11:25:53.799Z,864.69
2018-12-31T11:26:53.756Z,864.71
2018-12-31T11:27:53.740Z,864.67
2018-12-31T11:28:53.711Z,864.69
2018-12-31T11:29:53.719Z,864.68
2018-12-31T11:30:53.681Z,864.69
2018-12-31T11:31:53.717Z,864.73
2018-12-31T11:32:53.698Z,864.72
2018-12-31T11:33:53.683Z,864.65
2018-12-31T11:34:53.664Z,864.64
2018-12-31T11:35:53.630Z,864.60
2018-12-31T11:36:53.622Z,864.60
2018-12-31T11:37:53.703Z,864.63
2018-12-31T11:38:53.600Z,864.57
2018-12-31T11:39:53.584Z,864.53
2018-12-31T11:40:53.624Z,864.50
2018-12-31T11:41:53.557Z,864.48
2018-12-31T11:42:53.568Z,864.49
2018-12-31T11:43:53.578Z,864.53
2018-12-31T11:44:53.528Z,864.53
2018-12-31T11:45:53.524Z,864.54
2018-12-31T11:46:53.533Z,864.50
2018-12-31T11:47:53.508Z,864.49
2018-12-31T11:48:53.545Z,864.49
2018-12-31T11:49:53.630Z,864.45
2018-12-31T11:50:53.483Z,864.43
2018-12-31T11:51:53.455Z,864.44
2018-12-31T11:52:53.457Z,864.39
2018-12-31T11:53:53.439Z,864.39
2018-12-31T11:54:53.435Z,864.37
2018-12-31T11:55:53.461Z,864.38
2018-12-31T11:56:53.400Z,864.42
2018-12-31T11:57:53.395Z,864.43
2018-12-31T11:58:53.384Z,864.44
2018-12-31T11:59:53.379Z,864.40
2018-12-31T12:00:53.424Z,864.36
2018-12-31T12:01:53.416Z,864.41
2018-12-31T12:02:54.133Z,864.36
2018-12-31T12:03:54.077Z,864.35
2018-12-31T12:04:53.309Z,864.28
2018-12-31T12:05:53.309Z,864.30
2018-12-31T12:06:53.325Z,864.31
2018-12-31T12:07:53.336Z,864.26
2018-12-31T12:08:53.279Z,864.22
2018-12-31T12:09:53.256Z,864.26
2018-12-31T12:10:53.248Z,864.19
2018-12-31T12:11:53.279Z,864.23
2018-12-31T12:12:53.239Z,864.28
2018-12-31T12:13:53.271Z,864.24
2018-12-31T12:14:53.209Z,864.26
2018-12-31T12:15:53.234Z,864.19
2018-12-31T12:16:53.184Z,864.18
2018-12-31T12:17:53.167Z,864.17
2018-12-31T12:18:53.186Z,864.16
2018-12-31T12:19:53.153Z,864.17
2018-12-31T12:20:53.144Z,864.18
2018-12-31T12:21:53.156Z,864.14
2018-12-31T12:22:53.124Z,864.18
2018-12-31T12:23:53.105Z,864.14
2018-12-31T12:24:53.102Z,864.17
2018-12-31T12:25:53.103Z,864.14
2018-12-31T12:26:53.122Z,864.13
2018-12-31T12:27:53.142Z,864.11